sensor_id;sensor_type;location;lat;lon;timestamp;pressure;altitude;pressure_sealevel;temperature;humidity
3096;BME280;1558;42.700;23.360;2023-04-08T00:01:39;95417.41;;;5.73;85.26
3096;BME280;1558;42.700;23.360;2023-04-08T00:04:07;95403.63;;;5.66;85.85
3096;BME280;1558;42.700;23.360;2023-04-08T00:06:37;95396.81;;;5.74;85.99
3096;BME280;1558;42.700;23.360;2023-04-08T00:09:05;95400.75;;;5.76;85.60
3096;BME280;1558;42.700;23.360;2023-04-08T00:11:33;95405.81;;;5.78;85.93
3096;BME280;1558;42.700;23.360;2023-04-08T00:14:01;95422.75;;;5.73;85.00
3096;BME280;1558;42.700;23.360;2023-04-08T00:16:30;95414.06;;;5.68;84.90
3096;BME280;1558;42.700;23.360;2023-04-08T00:18:58;95418.78;;;5.57;84.98
3096;BME280;1558;42.700;23.360;2023-04-08T00:21:26;95391.56;;;5.41;86.36
3096;BME280;1558;42.700;23.360;2023-04-08T00:23:55;95413.66;;;5.61;87.67
3096;BME280;1558;42.700;23.360;2023-04-08T00:26:23;95416.13;;;5.57;88.75
3096;BME280;1558;42.700;23.360;2023-04-08T00:28:52;95416.91;;;5.58;89.90
3096;BME280;1558;42.700;23.360;2023-04-08T00:31:20;95416.03;;;5.48;90.67
3096;BME280;1558;42.700;23.360;2023-04-08T00:33:48;95414.75;;;5.46;91.45
3096;BME280;1558;42.700;23.360;2023-04-08T00:36:15;95422.28;;;5.44;92.96
3096;BME280;1558;42.700;23.360;2023-04-08T00:38:44;95420.75;;;5.38;93.41
3096;BME280;1558;42.700;23.360;2023-04-08T00:41:14;95409.25;;;5.24;93.01
3096;BME280;1558;42.700;23.360;2023-04-08T00:43:42;95419.38;;;5.27;93.70
3096;BME280;1558;42.700;23.360;2023-04-08T00:46:10;95416.78;;;5.22;94.15
3096;BME280;1558;42.700;23.360;2023-04-08T00:48:38;95418.53;;;5.13;94.17
3096;BME280;1558;42.700;23.360;2023-04-08T00:51:07;95428.44;;;5.12;94.72
3096;BME280;1558;42.700;23.360;2023-04-08T00:53:35;95425.47;;;5.14;95.33
3096;BME280;1558;42.700;23.360;2023-04-08T00:56:03;95364.19;;;4.71;95.46
3096;BME280;1558;42.700;23.360;2023-04-08T00:58:34;95432.78;;;5.08;95.83
3096;BME280;1558;42.700;23.360;2023-04-08T01:01:05;95432.38;;;5.01;96.70
3096;BME280;1558;42.700;23.360;2023-04-08T01:03:41;95393.50;;;4.76;97.09
3096;BME280;1558;42.700;23.360;2023-04-08T01:06:19;95376.13;;;4.60;98.06
3096;BME280;1558;42.700;23.360;2023-04-08T01:08:50;95428.19;;;4.95;98.89
3096;BME280;1558;42.700;23.360;2023-04-08T01:11:19;95428.50;;;4.94;98.77
3096;BME280;1558;42.700;23.360;2023-04-08T01:13:50;95407.28;;;4.84;99.55
3096;BME280;1558;42.700;23.360;2023-04-08T01:16:23;95429.78;;;4.96;99.29
3096;BME280;1558;42.700;23.360;2023-04-08T01:18:53;95430.06;;;4.95;99.53
3096;BME280;1558;42.700;23.360;2023-04-08T01:21:22;95424.84;;;5.03;100.00
3096;BME280;1558;42.700;23.360;2023-04-08T01:23:58;95408.91;;;4.98;100.00
3096;BME280;1558;42.700;23.360;2023-04-08T01:26:30;95429.66;;;5.20;99.12
3096;BME280;1558;42.700;23.360;2023-04-08T01:28:59;95394.22;;;4.82;98.54
3096;BME280;1558;42.700;23.360;2023-04-08T01:31:29;95429.41;;;5.03;98.34
3096;BME280;1558;42.700;23.360;2023-04-08T01:33:59;95434.38;;;5.09;97.92
3096;BME280;1558;42.700;23.360;2023-04-08T01:36:31;95414.16;;;5.03;97.61
3096;BME280;1558;42.700;23.360;2023-04-08T01:39:02;95426.06;;;5.11;96.89
3096;BME280;1558;42.700;23.360;2023-04-08T01:41:35;95428.13;;;5.14;96.07
3096;BME280;1558;42.700;23.360;2023-04-08T01:44:04;95411.19;;;5.05;96.13
3096;BME280;1558;42.700;23.360;2023-04-08T01:46:32;95429.63;;;5.06;95.99
3096;BME280;1558;42.700;23.360;2023-04-08T01:49:02;95436.84;;;5.06;96.33
3096;BME280;1558;42.700;23.360;2023-04-08T01:51:30;95419.09;;;4.96;95.98
3096;BME280;1558;42.700;23.360;2023-04-08T01:53:58;95437.53;;;5.11;95.56
3096;BME280;1558;42.700;23.360;2023-04-08T01:56:28;95428.59;;;5.02;95.08
3096;BME280;1558;42.700;23.360;2023-04-08T01:58:59;95392.50;;;4.72;95.14
3096;BME280;1558;42.700;23.360;2023-04-08T02:01:28;95419.47;;;4.90;95.57
3096;BME280;1558;42.700;23.360;2023-04-08T02:03:58;95438.59;;;4.97;96.00
3096;BME280;1558;42.700;23.360;2023-04-08T02:06:27;95407.50;;;4.68;96.41
3096;BME280;1558;42.700;23.360;2023-04-08T02:08:55;95392.16;;;4.60;96.73
3096;BME280;1558;42.700;23.360;2023-04-08T02:11:23;95438.34;;;4.79;97.45
3096;BME280;1558;42.700;23.360;2023-04-08T02:13:55;95430.25;;;4.66;98.00
3096;BME280;1558;42.700;23.360;2023-04-08T02:16:29;95462.16;;;4.76;99.20
3096;BME280;1558;42.700;23.360;2023-04-08T02:19:02;95466.28;;;4.68;100.00
3096;BME280;1558;42.700;23.360;2023-04-08T02:21:36;95457.19;;;4.69;100.00
3096;BME280;1558;42.700;23.360;2023-04-08T02:24:07;95454.75;;;4.73;100.00
3096;BME280;1558;42.700;23.360;2023-04-08T02:26:37;95463.91;;;4.67;100.00
3096;BME280;1558;42.700;23.360;2023-04-08T02:29:08;95433.72;;;4.48;100.00
3096;BME280;1558;42.700;23.360;2023-04-08T02:31:41;95447.25;;;4.56;100.00
3096;BME280;1558;42.700;23.360;2023-04-08T02:34:10;95433.81;;;4.43;100.00
3096;BME280;1558;42.700;23.360;2023-04-08T02:36:39;95418.72;;;4.33;100.00
3096;BME280;1558;42.700;23.360;2023-04-08T02:39:08;95435.69;;;4.42;100.00
3096;BME280;1558;42.700;23.360;2023-04-08T02:41:36;95441.63;;;4.39;100.00
3096;BME280;1558;42.700;23.360;2023-04-08T02:44:04;95408.13;;;4.28;100.00
3096;BME280;1558;42.700;23.360;2023-04-08T02:46:32;95459.50;;;4.57;100.00
3096;BME280;1558;42.700;23.360;2023-04-08T02:49:01;95414.13;;;4.39;100.00
3096;BME280;1558;42.700;23.360;2023-04-08T02:51:29;95456.69;;;4.67;100.00
3096;BME280;1558;42.700;23.360;2023-04-08T02:53:58;95452.91;;;4.68;100.00
3096;BME280;1558;42.700;23.360;2023-04-08T02:56:27;95446.50;;;4.69;100.00
3096;BME280;1558;42.700;23.360;2023-04-08T02:58:54;95450.16;;;4.73;100.00
3096;BME280;1558;42.700;23.360;2023-04-08T03:01:22;95450.53;;;4.67;100.00
3096;BME280;1558;42.700;23.360;2023-04-08T03:03:51;95444.41;;;4.66;100.00
3096;BME280;1558;42.700;23.360;2023-04-08T03:06:20;95404.66;;;4.46;100.00
3096;BME280;1558;42.700;23.360;2023-04-08T03:08:48;95459.41;;;4.81;100.00
3096;BME280;1558;42.700;23.360;2023-04-08T03:11:17;95464.44;;;4.82;100.00
3096;BME280;1558;42.700;23.360;2023-04-08T03:13:44;95453.34;;;4.75;100.00
3096;BME280;1558;42.700;23.360;2023-04-08T03:16:12;95452.34;;;4.71;100.00
3096;BME280;1558;42.700;23.360;2023-04-08T03:18:41;95450.84;;;4.65;100.00
3096;BME280;1558;42.700;23.360;2023-04-08T03:21:09;95449.31;;;4.59;100.00
3096;BME280;1558;42.700;23.360;2023-04-08T03:23:38;95434.03;;;4.46;100.00
3096;BME280;1558;42.700;23.360;2023-04-08T03:26:06;95455.25;;;4.56;100.00
3096;BME280;1558;42.700;23.360;2023-04-08T03:28:34;95416.34;;;4.32;100.00
3096;BME280;1558;42.700;23.360;2023-04-08T03:31:02;95448.94;;;4.66;100.00
3096;BME280;1558;42.700;23.360;2023-04-08T03:33:31;95459.56;;;4.71;100.00
3096;BME280;1558;42.700;23.360;2023-04-08T03:35:59;95451.84;;;4.69;100.00
3096;BME280;1558;42.700;23.360;2023-04-08T03:38:27;95390.09;;;4.20;100.00
3096;BME280;1558;42.700;23.360;2023-04-08T03:40:56;95461.66;;;4.74;100.00
3096;BME280;1558;42.700;23.360;2023-04-08T03:43:24;95459.84;;;4.69;100.00
3096;BME280;1558;42.700;23.360;2023-04-08T03:45:53;95453.59;;;4.60;100.00
3096;BME280;1558;42.700;23.360;2023-04-08T03:48:22;95461.59;;;4.60;100.00
3096;BME280;1558;42.700;23.360;2023-04-08T03:50:50;95450.69;;;4.57;100.00
3096;BME280;1558;42.700;23.360;2023-04-08T03:53:18;95457.19;;;4.69;100.00
3096;BME280;1558;42.700;23.360;2023-04-08T03:55:47;95459.47;;;4.76;100.00
3096;BME280;1558;42.700;23.360;2023-04-08T03:58:17;95452.28;;;4.76;100.00
3096;BME280;1558;42.700;23.360;2023-04-08T04:00:45;95254.53;;;3.48;100.00
3096;BME280;1558;42.700;23.360;2023-04-08T04:03:13;95453.44;;;4.70;100.00
3096;BME280;1558;42.700;23.360;2023-04-08T04:05:41;95447.31;;;4.70;100.00
3096;BME280;1558;42.700;23.360;2023-04-08T04:08:09;95444.84;;;4.55;100.00
3096;BME280;1558;42.700;23.360;2023-04-08T04:10:37;95406.75;;;4.12;100.00
3096;BME280;1558;42.700;23.360;2023-04-08T04:13:06;95427.41;;;4.25;100.00
3096;BME280;1558;42.700;23.360;2023-04-08T04:15:38;95453.88;;;4.40;100.00
3096;BME280;1558;42.700;23.360;2023-04-08T04:18:06;95458.06;;;4.46;100.00
3096;BME280;1558;42.700;23.360;2023-04-08T04:20:38;95464.47;;;4.45;100.00
3096;BME280;1558;42.700;23.360;2023-04-08T04:23:06;95465.41;;;4.54;100.00
3096;BME280;1558;42.700;23.360;2023-04-08T04:25:34;95471.72;;;4.63;100.00
3096;BME280;1558;42.700;23.360;2023-04-08T04:28:05;95469.03;;;4.63;100.00
3096;BME280;1558;42.700;23.360;2023-04-08T04:30:35;95473.97;;;4.56;100.00
3096;BME280;1558;42.700;23.360;2023-04-08T04:33:05;95467.94;;;4.64;100.00
3096;BME280;1558;42.700;23.360;2023-04-08T04:35:33;95477.50;;;4.70;100.00
3096;BME280;1558;42.700;23.360;2023-04-08T04:38:01;95456.97;;;4.66;100.00
3096;BME280;1558;42.700;23.360;2023-04-08T04:40:31;95474.06;;;4.84;100.00
3096;BME280;1558;42.700;23.360;2023-04-08T04:42:59;95455.88;;;4.86;100.00
3096;BME280;1558;42.700;23.360;2023-04-08T04:45:27;95475.91;;;5.02;100.00
3096;BME280;1558;42.700;23.360;2023-04-08T04:47:55;95443.38;;;4.81;100.00
3096;BME280;1558;42.700;23.360;2023-04-08T04:50:25;95472.38;;;5.06;100.00
3096;BME280;1558;42.700;23.360;2023-04-08T04:52:53;95466.25;;;5.06;100.00
3096;BME280;1558;42.700;23.360;2023-04-08T04:55:21;95402.97;;;4.69;100.00
3096;BME280;1558;42.700;23.360;2023-04-08T04:57:50;95444.44;;;4.99;100.00
3096;BME280;1558;42.700;23.360;2023-04-08T05:00:18;95471.66;;;5.01;100.00
3096;BME280;1558;42.700;23.360;2023-04-08T05:02:46;95434.56;;;4.80;100.00
3096;BME280;1558;42.700;23.360;2023-04-08T05:05:14;95472.16;;;5.03;100.00
3096;BME280;1558;42.700;23.360;2023-04-08T05:07:44;95482.44;;;4.96;100.00
3096;BME280;1558;42.700;23.360;2023-04-08T05:10:12;95471.31;;;4.89;100.00
3096;BME280;1558;42.700;23.360;2023-04-08T05:12:40;95476.72;;;5.02;100.00
3096;BME280;1558;42.700;23.360;2023-04-08T05:15:08;95479.88;;;5.04;100.00
3096;BME280;1558;42.700;23.360;2023-04-08T05:17:36;95450.94;;;4.93;100.00
3096;BME280;1558;42.700;23.360;2023-04-08T05:20:06;95471.22;;;5.12;100.00
3096;BME280;1558;42.700;23.360;2023-04-08T05:22:34;95479.34;;;5.21;100.00
3096;BME280;1558;42.700;23.360;2023-04-08T05:25:04;95472.16;;;5.03;100.00
3096;BME280;1558;42.700;23.360;2023-04-08T05:27:32;95423.22;;;4.89;100.00
3096;BME280;1558;42.700;23.360;2023-04-08T05:30:01;95472.84;;;5.27;100.00
3096;BME280;1558;42.700;23.360;2023-04-08T05:32:29;95482.75;;;5.40;100.00
3096;BME280;1558;42.700;23.360;2023-04-08T05:34:57;95486.16;;;5.45;100.00
3096;BME280;1558;42.700;23.360;2023-04-08T05:37:28;95400.50;;;5.05;100.00
3096;BME280;1558;42.700;23.360;2023-04-08T05:39:57;95484.31;;;5.73;99.02
3096;BME280;1558;42.700;23.360;2023-04-08T05:42:26;95478.38;;;5.76;98.37
3096;BME280;1558;42.700;23.360;2023-04-08T05:44:54;95485.94;;;5.88;97.33
3096;BME280;1558;42.700;23.360;2023-04-08T05:47:22;95482.66;;;5.77;97.54
3096;BME280;1558;42.700;23.360;2023-04-08T05:49:50;95483.75;;;5.90;97.10
3096;BME280;1558;42.700;23.360;2023-04-08T05:52:18;95480.88;;;5.86;96.85
3096;BME280;1558;42.700;23.360;2023-04-08T05:54:46;95478.22;;;5.86;97.25
3096;BME280;1558;42.700;23.360;2023-04-08T05:57:14;95482.06;;;6.07;97.53
3096;BME280;1558;42.700;23.360;2023-04-08T05:59:44;95466.31;;;5.92;95.85
3096;BME280;1558;42.700;23.360;2023-04-08T06:02:12;95487.75;;;6.06;95.81
3096;BME280;1558;42.700;23.360;2023-04-08T06:04:40;95484.25;;;6.05;95.54
3096;BME280;1558;42.700;23.360;2023-04-08T06:07:08;95476.72;;;6.07;95.82
3096;BME280;1558;42.700;23.360;2023-04-08T06:09:36;95474.94;;;6.17;95.54
3096;BME280;1558;42.700;23.360;2023-04-08T06:12:04;95476.09;;;6.38;95.77
3096;BME280;1558;42.700;23.360;2023-04-08T06:14:32;95422.78;;;6.00;94.32
3096;BME280;1558;42.700;23.360;2023-04-08T06:17:02;95473.81;;;6.31;95.48
3096;BME280;1558;42.700;23.360;2023-04-08T06:19:31;95456.19;;;6.17;95.71
3096;BME280;1558;42.700;23.360;2023-04-08T06:21:59;95472.81;;;6.41;95.37
3096;BME280;1558;42.700;23.360;2023-04-08T06:24:28;95475.94;;;6.70;94.85
3096;BME280;1558;42.700;23.360;2023-04-08T06:26:56;95474.28;;;6.82;94.55
3096;BME280;1558;42.700;23.360;2023-04-08T06:29:24;95472.47;;;7.14;93.37
3096;BME280;1558;42.700;23.360;2023-04-08T06:31:52;95480.78;;;7.26;92.58
3096;BME280;1558;42.700;23.360;2023-04-08T06:34:21;95455.06;;;7.03;92.42
3096;BME280;1558;42.700;23.360;2023-04-08T06:36:49;95469.28;;;7.56;92.38
3096;BME280;1558;42.700;23.360;2023-04-08T06:39:17;95473.69;;;7.83;90.62
3096;BME280;1558;42.700;23.360;2023-04-08T06:41:47;95464.66;;;7.79;89.55
3096;BME280;1558;42.700;23.360;2023-04-08T06:44:15;95475.34;;;7.70;89.37
3096;BME280;1558;42.700;23.360;2023-04-08T06:46:43;95468.28;;;7.43;88.95
3096;BME280;1558;42.700;23.360;2023-04-08T06:49:14;95475.56;;;7.51;90.45
3096;BME280;1558;42.700;23.360;2023-04-08T06:51:43;95475.09;;;7.49;91.04
3096;BME280;1558;42.700;23.360;2023-04-08T06:54:11;95456.44;;;7.44;91.17
3096;BME280;1558;42.700;23.360;2023-04-08T06:56:40;95453.63;;;7.49;91.32
3096;BME280;1558;42.700;23.360;2023-04-08T06:59:09;95470.91;;;7.66;90.93
3096;BME280;1558;42.700;23.360;2023-04-08T07:01:37;95471.75;;;7.75;90.79
3096;BME280;1558;42.700;23.360;2023-04-08T07:04:05;95468.91;;;7.80;90.14
3096;BME280;1558;42.700;23.360;2023-04-08T07:06:33;95472.59;;;7.84;90.19
3096;BME280;1558;42.700;23.360;2023-04-08T07:09:03;95478.03;;;8.01;91.09
3096;BME280;1558;42.700;23.360;2023-04-08T07:11:31;95482.81;;;8.21;91.00
3096;BME280;1558;42.700;23.360;2023-04-08T07:13:59;95479.34;;;8.20;90.39
3096;BME280;1558;42.700;23.360;2023-04-08T07:16:27;95487.47;;;8.29;88.90
3096;BME280;1558;42.700;23.360;2023-04-08T07:18:55;95467.56;;;8.30;86.61
3096;BME280;1558;42.700;23.360;2023-04-08T07:21:23;95482.91;;;8.38;86.03
3096;BME280;1558;42.700;23.360;2023-04-08T07:23:51;95477.53;;;8.38;86.88
3096;BME280;1558;42.700;23.360;2023-04-08T07:26:21;95481.97;;;8.34;85.90
3096;BME280;1558;42.700;23.360;2023-04-08T07:28:49;95484.47;;;8.31;86.12
3096;BME280;1558;42.700;23.360;2023-04-08T07:31:17;95485.28;;;8.31;86.68
3096;BME280;1558;42.700;23.360;2023-04-08T07:33:46;95486.06;;;8.32;86.97
3096;BME280;1558;42.700;23.360;2023-04-08T07:36:14;95492.88;;;8.46;87.26
3096;BME280;1558;42.700;23.360;2023-04-08T07:38:43;95499.53;;;8.49;87.79
3096;BME280;1558;42.700;23.360;2023-04-08T07:41:12;95490.88;;;8.69;87.98
3096;BME280;1558;42.700;23.360;2023-04-08T07:43:41;95510.34;;;8.92;86.32
3096;BME280;1558;42.700;23.360;2023-04-08T07:46:09;95410.28;;;8.21;85.88
3096;BME280;1558;42.700;23.360;2023-04-08T07:48:37;95482.38;;;8.84;85.79
3096;BME280;1558;42.700;23.360;2023-04-08T07:51:06;95484.28;;;9.01;84.98
3096;BME280;1558;42.700;23.360;2023-04-08T07:53:37;95503.59;;;9.20;83.65
3096;BME280;1558;42.700;23.360;2023-04-08T07:56:10;95510.03;;;9.44;83.58
3096;BME280;1558;42.700;23.360;2023-04-08T07:58:38;95514.81;;;9.22;81.01
3096;BME280;1558;42.700;23.360;2023-04-08T08:01:15;95508.31;;;9.31;81.38
3096;BME280;1558;42.700;23.360;2023-04-08T08:03:44;95515.59;;;9.48;81.17
3096;BME280;1558;42.700;23.360;2023-04-08T08:06:14;95508.56;;;9.73;79.47
3096;BME280;1558;42.700;23.360;2023-04-08T08:08:42;95344.56;;;8.78;78.87
3096;BME280;1558;42.700;23.360;2023-04-08T08:11:10;95514.00;;;10.10;78.58
3096;BME280;1558;42.700;23.360;2023-04-08T08:13:38;95517.00;;;10.17;77.12
3096;BME280;1558;42.700;23.360;2023-04-08T08:16:06;95518.53;;;10.36;76.37
3096;BME280;1558;42.700;23.360;2023-04-08T08:18:39;95514.97;;;10.81;75.28
3096;BME280;1558;42.700;23.360;2023-04-08T08:21:08;95509.09;;;10.79;73.46
3096;BME280;1558;42.700;23.360;2023-04-08T08:23:36;95525.44;;;10.83;74.18
3096;BME280;1558;42.700;23.360;2023-04-08T08:26:05;95524.91;;;10.89;72.98
3096;BME280;1558;42.700;23.360;2023-04-08T08:28:35;95465.25;;;10.62;73.15
3096;BME280;1558;42.700;23.360;2023-04-08T08:31:04;95453.81;;;10.65;71.31
3096;BME280;1558;42.700;23.360;2023-04-08T08:33:32;95516.50;;;10.62;71.52
3096;BME280;1558;42.700;23.360;2023-04-08T08:36:02;95512.63;;;10.42;72.68
3096;BME280;1558;42.700;23.360;2023-04-08T08:38:31;95521.16;;;10.53;72.79
3096;BME280;1558;42.700;23.360;2023-04-08T08:40:59;95531.75;;;10.29;73.68
3096;BME280;1558;42.700;23.360;2023-04-08T08:43:30;95530.69;;;10.12;74.38
3096;BME280;1558;42.700;23.360;2023-04-08T08:45:59;95517.34;;;10.16;74.52
3096;BME280;1558;42.700;23.360;2023-04-08T08:48:27;95517.47;;;10.28;74.67
3096;BME280;1558;42.700;23.360;2023-04-08T08:50:55;95527.72;;;10.35;74.84
3096;BME280;1558;42.700;23.360;2023-04-08T08:53:29;95519.00;;;9.83;75.55
3096;BME280;1558;42.700;23.360;2023-04-08T08:56:01;95517.88;;;9.92;76.38
3096;BME280;1558;42.700;23.360;2023-04-08T08:58:32;95528.34;;;9.85;75.94
3096;BME280;1558;42.700;23.360;2023-04-08T09:01:00;95520.75;;;9.70;76.96
3096;BME280;1558;42.700;23.360;2023-04-08T09:03:28;95525.53;;;9.56;77.77
3096;BME280;1558;42.700;23.360;2023-04-08T09:05:58;95525.84;;;9.63;77.58
3096;BME280;1558;42.700;23.360;2023-04-08T09:08:29;95527.75;;;9.71;77.48
3096;BME280;1558;42.700;23.360;2023-04-08T09:11:12;95528.22;;;9.73;77.84
3096;BME280;1558;42.700;23.360;2023-04-08T09:13:40;95526.50;;;9.60;78.97
3096;BME280;1558;42.700;23.360;2023-04-08T09:16:10;95525.22;;;9.66;78.91
3096;BME280;1558;42.700;23.360;2023-04-08T09:18:40;95489.78;;;9.47;78.28
3096;BME280;1558;42.700;23.360;2023-04-08T09:21:11;95522.31;;;9.88;77.61
3096;BME280;1558;42.700;23.360;2023-04-08T09:23:43;95528.34;;;10.40;76.31
3096;BME280;1558;42.700;23.360;2023-04-08T09:26:12;95524.03;;;10.77;74.78
3096;BME280;1558;42.700;23.360;2023-04-08T09:28:42;95517.25;;;11.53;73.53
3096;BME280;1558;42.700;23.360;2023-04-08T09:31:21;95519.16;;;12.06;70.82
3096;BME280;1558;42.700;23.360;2023-04-08T09:33:52;95515.44;;;11.45;70.20
3096;BME280;1558;42.700;23.360;2023-04-08T09:36:20;95509.25;;;11.45;70.97
3096;BME280;1558;42.700;23.360;2023-04-08T09:38:51;95524.41;;;11.37;70.87
3096;BME280;1558;42.700;23.360;2023-04-08T09:41:21;95504.75;;;11.49;70.85
3096;BME280;1558;42.700;23.360;2023-04-08T09:43:50;95508.34;;;12.06;70.65
3096;BME280;1558;42.700;23.360;2023-04-08T09:46:27;95392.53;;;11.39;66.43
3096;BME280;1558;42.700;23.360;2023-04-08T09:49:02;95482.34;;;12.38;67.50
3096;BME280;1558;42.700;23.360;2023-04-08T09:51:49;95497.81;;;13.38;64.52
3096;BME280;1558;42.700;23.360;2023-04-08T09:54:31;95492.63;;;13.61;63.30
3096;BME280;1558;42.700;23.360;2023-04-08T09:57:08;95477.19;;;14.36;60.47
3096;BME280;1558;42.700;23.360;2023-04-08T09:59:37;95492.06;;;14.42;59.72
3096;BME280;1558;42.700;23.360;2023-04-08T10:02:18;95420.69;;;13.79;59.02
3096;BME280;1558;42.700;23.360;2023-04-08T10:04:52;95489.59;;;14.37;58.61
3096;BME280;1558;42.700;23.360;2023-04-08T10:07:22;95461.66;;;14.20;58.55
3096;BME280;1558;42.700;23.360;2023-04-08T10:09:52;95451.19;;;14.35;57.06
3096;BME280;1558;42.700;23.360;2023-04-08T10:12:20;95479.78;;;14.48;57.94
3096;BME280;1558;42.700;23.360;2023-04-08T10:15:23;95479.09;;;14.51;56.59
3096;BME280;1558;42.700;23.360;2023-04-08T10:17:51;95473.75;;;13.64;58.63
3096;BME280;1558;42.700;23.360;2023-04-08T10:20:41;95474.72;;;13.44;60.17
3096;BME280;1558;42.700;23.360;2023-04-08T10:23:11;95457.75;;;13.59;59.77
3096;BME280;1558;42.700;23.360;2023-04-08T10:25:41;95461.19;;;13.44;59.28
3096;BME280;1558;42.700;23.360;2023-04-08T10:28:23;95479.50;;;13.07;60.09
3096;BME280;1558;42.700;23.360;2023-04-08T10:30:52;95440.97;;;12.50;61.36
3096;BME280;1558;42.700;23.360;2023-04-08T10:33:22;95465.75;;;12.03;63.40
3096;BME280;1558;42.700;23.360;2023-04-08T10:35:59;95446.25;;;12.10;63.46
3096;BME280;1558;42.700;23.360;2023-04-08T10:38:28;95430.59;;;12.15;63.34
3096;BME280;1558;42.700;23.360;2023-04-08T10:40:58;95458.66;;;12.71;63.68
3096;BME280;1558;42.700;23.360;2023-04-08T10:43:31;95464.53;;;12.37;63.02
3096;BME280;1558;42.700;23.360;2023-04-08T10:45:59;95453.34;;;12.27;63.15
3096;BME280;1558;42.700;23.360;2023-04-08T10:48:28;95460.94;;;12.21;63.65
3096;BME280;1558;42.700;23.360;2023-04-08T10:50:58;95460.56;;;11.98;62.21
3096;BME280;1558;42.700;23.360;2023-04-08T10:53:27;95452.44;;;12.10;62.33
3096;BME280;1558;42.700;23.360;2023-04-08T10:56:04;95437.25;;;12.30;61.97
3096;BME280;1558;42.700;23.360;2023-04-08T10:58:33;95444.50;;;13.42;60.74
3096;BME280;1558;42.700;23.360;2023-04-08T11:01:03;95445.84;;;14.07;57.65
3096;BME280;1558;42.700;23.360;2023-04-08T11:03:32;95435.50;;;14.59;56.86
3096;BME280;1558;42.700;23.360;2023-04-08T11:06:02;95424.78;;;14.66;55.42
3096;BME280;1558;42.700;23.360;2023-04-08T11:08:31;95430.41;;;13.95;57.18
3096;BME280;1558;42.700;23.360;2023-04-08T11:11:00;95400.41;;;12.89;59.23
3096;BME280;1558;42.700;23.360;2023-04-08T11:13:30;95294.75;;;11.58;61.06
3096;BME280;1558;42.700;23.360;2023-04-08T11:15:59;95434.22;;;11.95;62.22
3096;BME280;1558;42.700;23.360;2023-04-08T11:18:29;95429.06;;;11.70;63.98
3096;BME280;1558;42.700;23.360;2023-04-08T11:20:57;95421.00;;;11.94;63.80
3096;BME280;1558;42.700;23.360;2023-04-08T11:23:27;95394.44;;;12.20;63.04
3096;BME280;1558;42.700;23.360;2023-04-08T11:25:55;95421.16;;;12.21;63.03
3096;BME280;1558;42.700;23.360;2023-04-08T11:28:24;95412.78;;;12.51;61.24
3096;BME280;1558;42.700;23.360;2023-04-08T11:30:54;95408.22;;;13.62;58.24
3096;BME280;1558;42.700;23.360;2023-04-08T11:33:24;95400.31;;;13.85;53.33
3096;BME280;1558;42.700;23.360;2023-04-08T11:35:53;95405.91;;;13.76;55.18
3096;BME280;1558;42.700;23.360;2023-04-08T11:38:21;95361.59;;;13.25;55.94
3096;BME280;1558;42.700;23.360;2023-04-08T11:40:53;95410.78;;;13.27;55.86
3096;BME280;1558;42.700;23.360;2023-04-08T11:43:21;95398.75;;;13.99;54.54
3096;BME280;1558;42.700;23.360;2023-04-08T11:45:49;95395.53;;;14.60;52.69
3096;BME280;1558;42.700;23.360;2023-04-08T11:48:19;95388.47;;;14.55;54.40
3096;BME280;1558;42.700;23.360;2023-04-08T11:50:47;95346.53;;;14.53;52.83
3096;BME280;1558;42.700;23.360;2023-04-08T11:53:18;95380.59;;;15.04;51.62
3096;BME280;1558;42.700;23.360;2023-04-08T11:55:46;95379.84;;;15.65;51.34
3096;BME280;1558;42.700;23.360;2023-04-08T11:58:15;95379.16;;;15.29;50.77
3096;BME280;1558;42.700;23.360;2023-04-08T12:00:43;95381.59;;;14.96;49.29
3096;BME280;1558;42.700;23.360;2023-04-08T12:03:12;95360.41;;;14.86;48.75
3096;BME280;1558;42.700;23.360;2023-04-08T12:05:41;95366.28;;;15.07;48.04
3096;BME280;1558;42.700;23.360;2023-04-08T12:08:09;95372.44;;;15.23;47.38
3096;BME280;1558;42.700;23.360;2023-04-08T12:10:37;95357.84;;;14.93;49.23
3096;BME280;1558;42.700;23.360;2023-04-08T12:13:06;95360.22;;;15.14;50.13
3096;BME280;1558;42.700;23.360;2023-04-08T12:15:35;95340.22;;;14.14;49.81
3096;BME280;1558;42.700;23.360;2023-04-08T12:18:03;95364.44;;;14.22;50.82
3096;BME280;1558;42.700;23.360;2023-04-08T12:20:32;95352.03;;;14.56;51.10
3096;BME280;1558;42.700;23.360;2023-04-08T12:23:01;95378.84;;;14.77;49.67
3096;BME280;1558;42.700;23.360;2023-04-08T12:25:31;95365.63;;;14.56;48.43
3096;BME280;1558;42.700;23.360;2023-04-08T12:28:00;95276.16;;;14.09;49.71
3096;BME280;1558;42.700;23.360;2023-04-08T12:30:28;95360.84;;;14.69;48.77
3096;BME280;1558;42.700;23.360;2023-04-08T12:32:57;95310.69;;;14.12;49.71
3096;BME280;1558;42.700;23.360;2023-04-08T12:35:25;95384.03;;;13.53;50.69
3096;BME280;1558;42.700;23.360;2023-04-08T12:37:53;95359.63;;;12.70;52.68
3096;BME280;1558;42.700;23.360;2023-04-08T12:40:23;95355.97;;;12.51;53.36
3096;BME280;1558;42.700;23.360;2023-04-08T12:42:51;95175.16;;;11.21;54.59
3096;BME280;1558;42.700;23.360;2023-04-08T12:45:19;95352.53;;;12.26;55.30
3096;BME280;1558;42.700;23.360;2023-04-08T12:47:47;95355.31;;;12.30;55.46
3096;BME280;1558;42.700;23.360;2023-04-08T12:50:15;95348.00;;;12.30;55.93
3096;BME280;1558;42.700;23.360;2023-04-08T12:52:43;95359.41;;;12.23;57.62
3096;BME280;1558;42.700;23.360;2023-04-08T12:55:11;95355.03;;;11.83;59.90
3096;BME280;1558;42.700;23.360;2023-04-08T12:57:40;95360.31;;;11.91;61.05
3096;BME280;1558;42.700;23.360;2023-04-08T13:00:09;95373.19;;;11.49;60.96
3096;BME280;1558;42.700;23.360;2023-04-08T13:02:38;95364.38;;;11.28;62.22
3096;BME280;1558;42.700;23.360;2023-04-08T13:05:08;95374.69;;;11.14;63.03
3096;BME280;1558;42.700;23.360;2023-04-08T13:07:36;95366.13;;;11.12;62.35
3096;BME280;1558;42.700;23.360;2023-04-08T13:10:05;95312.97;;;10.92;62.15
3096;BME280;1558;42.700;23.360;2023-04-08T13:12:34;95352.69;;;11.48;62.68
3096;BME280;1558;42.700;23.360;2023-04-08T13:15:04;95309.31;;;11.09;62.10
3096;BME280;1558;42.700;23.360;2023-04-08T13:17:32;95350.72;;;11.25;62.27
3096;BME280;1558;42.700;23.360;2023-04-08T13:20:00;95371.81;;;11.43;62.76
3096;BME280;1558;42.700;23.360;2023-04-08T13:22:28;95359.97;;;11.69;62.53
3096;BME280;1558;42.700;23.360;2023-04-08T13:24:56;95337.22;;;11.70;62.52
3096;BME280;1558;42.700;23.360;2023-04-08T13:27:24;95359.31;;;11.84;61.53